SUN008 SKSP-MHTG
Flight info
| Callsign | SUN008 |
|---|---|
| Flight time | 1h 0m |
| Altitude | 31000 |
| Route | FALLA3B FALLA UA552 PERSI/N0359F180 A552 TNT |
| Aircraft | A20N/M-SDE2E3FGHIRWXY/LB1 |
Departure
| Time | 2026-05-07 16:08 |
|---|---|
| Airport | Gustavo Rojas Pinilla International Airport (SKSP) |
Arrival
| Time | 2026-05-07 17:08 |
|---|---|
| Airport | Toncontín Airport (MHTG) |
| Time | Latitude | Longitude | Altitude | Speed | Heading |
|---|---|---|---|---|---|
| 2026-05-07 15:52 | 12.58691 | -81.70230 | 13 ft | 0 kts | 149° |
| 2026-05-07 15:58 | 12.58701 | -81.70237 | 11 ft | 2 kts | 148° |
| 2026-05-07 15:59 | 12.58715 | -81.70246 | 11 ft | 2 kts | 148° |
| 2026-05-07 15:59 | 12.58729 | -81.70255 | 12 ft | 2 kts | 132° |
| 2026-05-07 15:59 | 12.58738 | -81.70269 | 14 ft | 2 kts | 104° |
| 2026-05-07 15:59 | 12.58740 | -81.70286 | 12 ft | 2 kts | 87° |
| 2026-05-07 16:00 | 12.58738 | -81.70301 | 13 ft | 1 kts | 70° |
| 2026-05-07 16:00 | 12.58736 | -81.70305 | 13 ft | 0 kts | 64° |
| 2026-05-07 16:01 | 12.58739 | -81.70300 | 13 ft | 3 kts | 64° |
| 2026-05-07 16:02 | 12.58757 | -81.70268 | 13 ft | 7 kts | 59° |
| 2026-05-07 16:02 | 12.58802 | -81.70231 | 11 ft | 10 kts | 11° |
| 2026-05-07 16:02 | 12.58846 | -81.70262 | 11 ft | 10 kts | 254° |
| 2026-05-07 16:02 | 12.58803 | -81.70349 | 15 ft | 17 kts | 237° |
| 2026-05-07 16:03 | 12.58731 | -81.70474 | 14 ft | 23 kts | 237° |
| 2026-05-07 16:03 | 12.58646 | -81.70623 | 17 ft | 26 kts | 239° |
| 2026-05-07 16:03 | 12.58555 | -81.70782 | 23 ft | 26 kts | 240° |
| 2026-05-07 16:03 | 12.58458 | -81.70951 | 26 ft | 29 kts | 240° |
| 2026-05-07 16:04 | 12.58353 | -81.71133 | 25 ft | 30 kts | 239° |
| 2026-05-07 16:04 | 12.58251 | -81.71311 | 25 ft | 29 kts | 239° |
| 2026-05-07 16:04 | 12.58144 | -81.71497 | 22 ft | 31 kts | 239° |
| 2026-05-07 16:04 | 12.58037 | -81.71683 | 29 ft | 29 kts | 239° |
| 2026-05-07 16:05 | 12.57934 | -81.71864 | 28 ft | 30 kts | 239° |
| 2026-05-07 16:05 | 12.57850 | -81.71996 | 31 ft | 6 kts | 214° |
| 2026-05-07 16:05 | 12.57824 | -81.72025 | 30 ft | 6 kts | 293° |
| 2026-05-07 16:05 | 12.57843 | -81.72022 | 30 ft | 2 kts | 56° |
| 2026-05-07 16:06 | 12.57844 | -81.72019 | 30 ft | 0 kts | 59° |
| 2026-05-07 16:07 | 12.57873 | -81.71969 | 31 ft | 33 kts | 60° |
| 2026-05-07 16:07 | 12.58119 | -81.71538 | 24 ft | 103 kts | 59° |
| 2026-05-07 16:07 | 12.58576 | -81.70747 | 110 ft | 145 kts | 59° |
| 2026-05-07 16:08 | 12.59097 | -81.69903 | 779 ft | 141 kts | 58° |
| 2026-05-07 16:08 | 12.59644 | -81.69072 | 1482 ft | 138 kts | 57° |
| 2026-05-07 16:08 | 12.60334 | -81.68380 | 2053 ft | 153 kts | 23° |
| 2026-05-07 16:08 | 12.61482 | -81.68535 | 2433 ft | 190 kts | 331° |
| 2026-05-07 16:09 | 12.62310 | -81.69686 | 2866 ft | 217 kts | 293° |
| 2026-05-07 16:09 | 12.62749 | -81.71265 | 3221 ft | 244 kts | 283° |
| 2026-05-07 16:09 | 12.63095 | -81.73052 | 3684 ft | 267 kts | 282° |
| 2026-05-07 16:09 | 12.63434 | -81.74987 | 4316 ft | 283 kts | 281° |
| 2026-05-07 16:10 | 12.63819 | -81.76981 | 5120 ft | 289 kts | 290° |
| 2026-05-07 16:10 | 12.64803 | -81.78760 | 5952 ft | 286 kts | 314° |
| 2026-05-07 16:10 | 12.66199 | -81.80173 | 6942 ft | 282 kts | 320° |
| 2026-05-07 16:10 | 12.67680 | -81.81538 | 7631 ft | 292 kts | 320° |
| 2026-05-07 16:11 | 12.69160 | -81.82975 | 8435 ft | 294 kts | 317° |
| 2026-05-07 16:11 | 12.70613 | -81.84490 | 9118 ft | 303 kts | 315° |
| 2026-05-07 16:11 | 12.72072 | -81.86085 | 9818 ft | 310 kts | 315° |
| 2026-05-07 16:11 | 12.73535 | -81.87721 | 10474 ft | 318 kts | 314° |
| 2026-05-07 16:12 | 12.75079 | -81.89459 | 10685 ft | 341 kts | 314° |
| 2026-05-07 16:12 | 12.76722 | -81.91311 | 10936 ft | 360 kts | 314° |
| 2026-05-07 16:12 | 12.78423 | -81.93231 | 11560 ft | 364 kts | 314° |
| 2026-05-07 16:12 | 12.80143 | -81.95173 | 12169 ft | 371 kts | 314° |
| 2026-05-07 16:13 | 12.81877 | -81.97127 | 12946 ft | 371 kts | 313° |
| 2026-05-07 16:13 | 12.83616 | -81.99086 | 13679 ft | 373 kts | 313° |
| 2026-05-07 16:13 | 12.85363 | -82.01056 | 14112 ft | 383 kts | 314° |
| 2026-05-07 16:13 | 12.87155 | -82.03076 | 14801 ft | 382 kts | 314° |
| 2026-05-07 16:14 | 12.88956 | -82.05108 | 15325 ft | 389 kts | 314° |
| 2026-05-07 16:14 | 12.90788 | -82.07175 | 15869 ft | 392 kts | 314° |
| 2026-05-07 16:14 | 12.92620 | -82.09242 | 16582 ft | 392 kts | 314° |
| 2026-05-07 16:14 | 12.94463 | -82.11322 | 17100 ft | 397 kts | 314° |
| 2026-05-07 16:15 | 12.96325 | -82.13423 | 17731 ft | 398 kts | 314° |
| 2026-05-07 16:15 | 12.98200 | -82.15540 | 18218 ft | 403 kts | 314° |
| 2026-05-07 16:15 | 13.00090 | -82.17675 | 18723 ft | 406 kts | 314° |
| 2026-05-07 16:15 | 13.01997 | -82.19829 | 19218 ft | 408 kts | 314° |
| 2026-05-07 16:16 | 13.03909 | -82.21990 | 19697 ft | 411 kts | 314° |
| 2026-05-07 16:16 | 13.05838 | -82.24172 | 20133 ft | 415 kts | 314° |
| 2026-05-07 16:16 | 13.07781 | -82.26367 | 20674 ft | 415 kts | 314° |
| 2026-05-07 16:16 | 13.09725 | -82.28566 | 21105 ft | 419 kts | 314° |
| 2026-05-07 16:17 | 13.11691 | -82.30789 | 21590 ft | 421 kts | 314° |
| 2026-05-07 16:17 | 13.13664 | -82.33022 | 22045 ft | 424 kts | 314° |
| 2026-05-07 16:17 | 13.15651 | -82.35270 | 22455 ft | 427 kts | 314° |
| 2026-05-07 16:17 | 13.17655 | -82.37540 | 22919 ft | 429 kts | 314° |
| 2026-05-07 16:18 | 13.19639 | -82.39786 | 23333 ft | 433 kts | 314° |
| 2026-05-07 16:18 | 13.21667 | -82.42083 | 23707 ft | 436 kts | 314° |
| 2026-05-07 16:18 | 13.23709 | -82.44396 | 24082 ft | 438 kts | 314° |
| 2026-05-07 16:18 | 13.25758 | -82.46719 | 24447 ft | 440 kts | 314° |
| 2026-05-07 16:19 | 13.27816 | -82.49051 | 24808 ft | 442 kts | 314° |
| 2026-05-07 16:19 | 13.29885 | -82.51398 | 25157 ft | 444 kts | 314° |
| 2026-05-07 16:19 | 13.31969 | -82.53760 | 25511 ft | 446 kts | 314° |
| 2026-05-07 16:19 | 13.34054 | -82.56127 | 25853 ft | 449 kts | 314° |
| 2026-05-07 16:20 | 13.36152 | -82.58507 | 26189 ft | 451 kts | 314° |
| 2026-05-07 16:20 | 13.38260 | -82.60901 | 26526 ft | 453 kts | 314° |
| 2026-05-07 16:20 | 13.40381 | -82.63309 | 26844 ft | 455 kts | 314° |
| 2026-05-07 16:20 | 13.42508 | -82.65725 | 27161 ft | 457 kts | 314° |
| 2026-05-07 16:21 | 13.44641 | -82.68160 | 27481 ft | 460 kts | 314° |
| 2026-05-07 16:21 | 13.46755 | -82.70635 | 27782 ft | 462 kts | 313° |
| 2026-05-07 16:21 | 13.48870 | -82.73135 | 28092 ft | 464 kts | 313° |
| 2026-05-07 16:21 | 13.50993 | -82.75646 | 28391 ft | 466 kts | 313° |
| 2026-05-07 16:22 | 13.53127 | -82.78164 | 28673 ft | 468 kts | 313° |
| 2026-05-07 16:22 | 13.55277 | -82.80697 | 28922 ft | 471 kts | 313° |
| 2026-05-07 16:22 | 13.57437 | -82.83238 | 29201 ft | 473 kts | 313° |
| 2026-05-07 16:22 | 13.59607 | -82.85792 | 29482 ft | 475 kts | 313° |
| 2026-05-07 16:23 | 13.61787 | -82.88358 | 29766 ft | 477 kts | 313° |
| 2026-05-07 16:23 | 13.63977 | -82.90936 | 30043 ft | 479 kts | 313° |
| 2026-05-07 16:23 | 13.65432 | -82.92649 | 30210 ft | 481 kts | 313° |
| 2026-05-07 16:23 | 13.67637 | -82.95247 | 30475 ft | 482 kts | 313° |
| 2026-05-07 16:24 | 13.69844 | -82.97848 | 30748 ft | 483 kts | 313° |
| 2026-05-07 16:24 | 13.72056 | -83.00455 | 30905 ft | 485 kts | 313° |
| 2026-05-07 16:24 | 13.74272 | -83.03068 | 30979 ft | 484 kts | 313° |
| 2026-05-07 16:25 | 13.78695 | -83.08286 | 30990 ft | 481 kts | 313° |
| 2026-05-07 16:25 | 13.83094 | -83.13479 | 30988 ft | 482 kts | 313° |
| 2026-05-07 16:26 | 13.87503 | -83.18686 | 30966 ft | 484 kts | 313° |
| 2026-05-07 16:26 | 13.91924 | -83.23911 | 30966 ft | 483 kts | 313° |
| 2026-05-07 16:27 | 13.96334 | -83.29127 | 30963 ft | 483 kts | 313° |
| 2026-05-07 16:27 | 14.00738 | -83.34342 | 30959 ft | 483 kts | 312° |
| 2026-05-07 16:27 | 14.02659 | -83.37178 | 30956 ft | 485 kts | 300° |
| 2026-05-07 16:28 | 14.04004 | -83.40368 | 30953 ft | 487 kts | 288° |
| 2026-05-07 16:28 | 14.04711 | -83.43788 | 30949 ft | 488 kts | 276° |
| 2026-05-07 16:28 | 14.04835 | -83.47284 | 30920 ft | 489 kts | 270° |
| 2026-05-07 16:29 | 14.04681 | -83.54287 | 30923 ft | 489 kts | 269° |
| 2026-05-07 16:29 | 14.04608 | -83.61301 | 30933 ft | 490 kts | 270° |
| 2026-05-07 16:30 | 14.04613 | -83.68285 | 30938 ft | 491 kts | 270° |
| 2026-05-07 16:30 | 14.04633 | -83.75318 | 30945 ft | 491 kts | 270° |
| 2026-05-07 16:31 | 14.04650 | -83.82365 | 30953 ft | 492 kts | 270° |
| 2026-05-07 16:31 | 14.04664 | -83.89417 | 30957 ft | 493 kts | 270° |
| 2026-05-07 16:32 | 14.04675 | -83.96480 | 30961 ft | 493 kts | 270° |
| 2026-05-07 16:32 | 14.04684 | -84.03548 | 30963 ft | 493 kts | 270° |
| 2026-05-07 16:33 | 14.04691 | -84.10611 | 30972 ft | 493 kts | 270° |
| 2026-05-07 16:33 | 14.04696 | -84.17681 | 30972 ft | 493 kts | 270° |
| 2026-05-07 16:34 | 14.04700 | -84.24710 | 30975 ft | 493 kts | 270° |
| 2026-05-07 16:34 | 14.04701 | -84.31778 | 30971 ft | 493 kts | 270° |
| 2026-05-07 16:35 | 14.04700 | -84.38849 | 30973 ft | 493 kts | 270° |
| 2026-05-07 16:35 | 14.04697 | -84.45911 | 30970 ft | 493 kts | 270° |
| 2026-05-07 16:36 | 14.04692 | -84.52965 | 30974 ft | 493 kts | 270° |
| 2026-05-07 16:36 | 14.04685 | -84.60020 | 30972 ft | 492 kts | 270° |
| 2026-05-07 16:37 | 14.04676 | -84.67083 | 30984 ft | 492 kts | 270° |
| 2026-05-07 16:37 | 14.04664 | -84.74139 | 30977 ft | 493 kts | 270° |
| 2026-05-07 16:38 | 14.04636 | -84.81197 | 30978 ft | 493 kts | 270° |
| 2026-05-07 16:38 | 14.04603 | -84.88264 | 30987 ft | 493 kts | 270° |
| 2026-05-07 16:39 | 14.04571 | -84.95335 | 30989 ft | 494 kts | 270° |
| 2026-05-07 16:39 | 14.04537 | -85.02421 | 30994 ft | 494 kts | 270° |
| 2026-05-07 16:40 | 14.04502 | -85.09504 | 30987 ft | 495 kts | 269° |
| 2026-05-07 16:40 | 14.04464 | -85.16554 | 30995 ft | 495 kts | 269° |
| 2026-05-07 16:41 | 14.04424 | -85.23637 | 30993 ft | 495 kts | 269° |
| 2026-05-07 16:41 | 14.04382 | -85.30720 | 31006 ft | 495 kts | 269° |
| 2026-05-07 16:42 | 14.04484 | -85.37806 | 31009 ft | 495 kts | 276° |
| 2026-05-07 16:42 | 14.05795 | -85.44757 | 31012 ft | 495 kts | 283° |
| 2026-05-07 16:43 | 14.07368 | -85.51657 | 31012 ft | 495 kts | 283° |
| 2026-05-07 16:43 | 14.08690 | -85.58613 | 31021 ft | 495 kts | 273° |
| 2026-05-07 16:44 | 14.08599 | -85.65703 | 31020 ft | 495 kts | 268° |
| 2026-05-07 16:44 | 14.08384 | -85.72794 | 31025 ft | 496 kts | 268° |
| 2026-05-07 16:45 | 14.08149 | -85.79903 | 31037 ft | 497 kts | 268° |
| 2026-05-07 16:45 | 14.07908 | -85.87018 | 31044 ft | 497 kts | 268° |
| 2026-05-07 16:46 | 14.07663 | -85.94144 | 31046 ft | 498 kts | 267° |
| 2026-05-07 16:46 | 14.07417 | -86.01260 | 30719 ft | 497 kts | 267° |
| 2026-05-07 16:46 | 14.07293 | -86.04828 | 30048 ft | 499 kts | 267° |
| 2026-05-07 16:47 | 14.07168 | -86.08410 | 29227 ft | 500 kts | 267° |
| 2026-05-07 16:47 | 14.07043 | -86.11964 | 28750 ft | 492 kts | 267° |
| 2026-05-07 16:47 | 14.06922 | -86.15420 | 28184 ft | 486 kts | 267° |
| 2026-05-07 16:47 | 14.06800 | -86.18885 | 27614 ft | 481 kts | 267° |
| 2026-05-07 16:48 | 14.06677 | -86.22347 | 27129 ft | 488 kts | 267° |
| 2026-05-07 16:48 | 14.06552 | -86.25844 | 26839 ft | 488 kts | 267° |
| 2026-05-07 16:48 | 14.06427 | -86.29342 | 26236 ft | 489 kts | 267° |
| 2026-05-07 16:48 | 14.06300 | -86.32863 | 25324 ft | 493 kts | 267° |
| 2026-05-07 16:49 | 14.06170 | -86.36431 | 24560 ft | 507 kts | 267° |
| 2026-05-07 16:49 | 14.06036 | -86.40122 | 24094 ft | 520 kts | 267° |
| 2026-05-07 16:49 | 14.05902 | -86.43825 | 23762 ft | 515 kts | 267° |
| 2026-05-07 16:49 | 14.05768 | -86.47491 | 23115 ft | 510 kts | 267° |
| 2026-05-07 16:50 | 14.05636 | -86.51115 | 22434 ft | 503 kts | 267° |
| 2026-05-07 16:50 | 14.05505 | -86.54688 | 21704 ft | 496 kts | 267° |
| 2026-05-07 16:50 | 14.05375 | -86.58215 | 20970 ft | 489 kts | 267° |
| 2026-05-07 16:50 | 14.05246 | -86.61693 | 20215 ft | 483 kts | 267° |
| 2026-05-07 16:51 | 14.05118 | -86.65127 | 19601 ft | 476 kts | 267° |
| 2026-05-07 16:51 | 14.04991 | -86.68516 | 18930 ft | 470 kts | 267° |
| 2026-05-07 16:51 | 14.04867 | -86.71831 | 18616 ft | 452 kts | 267° |
| 2026-05-07 16:51 | 14.04749 | -86.74985 | 18302 ft | 429 kts | 267° |
| 2026-05-07 16:52 | 14.04635 | -86.78014 | 17447 ft | 421 kts | 267° |
| 2026-05-07 16:52 | 14.04523 | -86.81007 | 16536 ft | 415 kts | 267° |
| 2026-05-07 16:52 | 14.04346 | -86.83952 | 15656 ft | 409 kts | 262° |
| 2026-05-07 16:52 | 14.03908 | -86.86828 | 14823 ft | 403 kts | 258° |
| 2026-05-07 16:53 | 14.03409 | -86.89622 | 14255 ft | 391 kts | 258° |
| 2026-05-07 16:53 | 14.02928 | -86.92327 | 13793 ft | 377 kts | 258° |
| 2026-05-07 16:53 | 14.02470 | -86.94909 | 13325 ft | 368 kts | 258° |
| 2026-05-07 16:53 | 14.02009 | -86.97495 | 12829 ft | 364 kts | 258° |
| 2026-05-07 16:54 | 14.01567 | -87.00024 | 12328 ft | 354 kts | 261° |
| 2026-05-07 16:54 | 14.01368 | -87.02515 | 11857 ft | 344 kts | 268° |
| 2026-05-07 16:54 | 14.01327 | -87.04949 | 11389 ft | 336 kts | 268° |
| 2026-05-07 16:54 | 14.01289 | -87.07326 | 10923 ft | 328 kts | 268° |
| 2026-05-07 16:55 | 14.01255 | -87.09631 | 10618 ft | 314 kts | 268° |
| 2026-05-07 16:55 | 14.01223 | -87.11825 | 10404 ft | 299 kts | 268° |
| 2026-05-07 16:55 | 14.01200 | -87.13945 | 10180 ft | 296 kts | 268° |
| 2026-05-07 16:55 | 14.01171 | -87.16037 | 9948 ft | 286 kts | 268° |
| 2026-05-07 16:56 | 14.01150 | -87.18046 | 9689 ft | 276 kts | 272° |
| 2026-05-07 16:56 | 14.01664 | -87.19941 | 9583 ft | 277 kts | 301° |
| 2026-05-07 16:56 | 14.04664 | -87.21995 | 9383 ft | 265 kts | 355° |
| 2026-05-07 16:57 | 14.06474 | -87.21886 | 9267 ft | 257 kts | 20° |
| 2026-05-07 16:57 | 14.07930 | -87.20961 | 9180 ft | 241 kts | 50° |
| 2026-05-07 16:57 | 14.08887 | -87.19642 | 9083 ft | 227 kts | 54° |
| 2026-05-07 16:57 | 14.09958 | -87.18533 | 9029 ft | 210 kts | 38° |
| 2026-05-07 16:58 | 14.11219 | -87.17886 | 8911 ft | 197 kts | 19° |
| 2026-05-07 16:58 | 14.12542 | -87.17682 | 8733 ft | 189 kts | 2° |
| 2026-05-07 16:58 | 14.13841 | -87.17832 | 8554 ft | 188 kts | 347° |
| 2026-05-07 16:58 | 14.15096 | -87.18267 | 8532 ft | 192 kts | 337° |
| 2026-05-07 16:59 | 14.16255 | -87.18952 | 8483 ft | 188 kts | 324° |
| 2026-05-07 16:59 | 14.17217 | -87.19785 | 8470 ft | 171 kts | 314° |
| 2026-05-07 16:59 | 14.17943 | -87.20672 | 8353 ft | 156 kts | 307° |
| 2026-05-07 16:59 | 14.18593 | -87.21606 | 8201 ft | 166 kts | 303° |
| 2026-05-07 17:00 | 14.19166 | -87.22629 | 8075 ft | 162 kts | 295° |
| 2026-05-07 17:00 | 14.19574 | -87.23704 | 7830 ft | 160 kts | 285° |
| 2026-05-07 17:00 | 14.19843 | -87.24807 | 7532 ft | 158 kts | 278° |
| 2026-05-07 17:00 | 14.19965 | -87.25941 | 7264 ft | 158 kts | 269° |
| 2026-05-07 17:01 | 14.19931 | -87.27089 | 7062 ft | 162 kts | 260° |
| 2026-05-07 17:01 | 14.19711 | -87.28218 | 6850 ft | 159 kts | 251° |
| 2026-05-07 17:01 | 14.19369 | -87.29278 | 6887 ft | 159 kts | 242° |
| 2026-05-07 17:01 | 14.18873 | -87.30286 | 6924 ft | 156 kts | 236° |
| 2026-05-07 17:02 | 14.18280 | -87.31229 | 6971 ft | 155 kts | 228° |
| 2026-05-07 17:02 | 14.17579 | -87.32080 | 6987 ft | 157 kts | 220° |
| 2026-05-07 17:02 | 14.16779 | -87.32822 | 6899 ft | 153 kts | 213° |
| 2026-05-07 17:02 | 14.15878 | -87.33353 | 6688 ft | 150 kts | 199° |
| 2026-05-07 17:03 | 14.14889 | -87.33670 | 6674 ft | 150 kts | 186° |
| 2026-05-07 17:03 | 14.13838 | -87.33752 | 6722 ft | 152 kts | 174° |
| 2026-05-07 17:03 | 14.12810 | -87.33595 | 6697 ft | 147 kts | 160° |
| 2026-05-07 17:03 | 14.11838 | -87.33249 | 6728 ft | 149 kts | 154° |
| 2026-05-07 17:04 | 14.11198 | -87.32950 | 6668 ft | 150 kts | 151° |
| 2026-05-07 17:04 | 14.10291 | -87.32494 | 6498 ft | 146 kts | 152° |
| 2026-05-07 17:04 | 14.09389 | -87.32017 | 6164 ft | 146 kts | 146° |
| 2026-05-07 17:04 | 14.08569 | -87.31417 | 5837 ft | 144 kts | 138° |
| 2026-05-07 17:05 | 14.07863 | -87.30707 | 5528 ft | 141 kts | 127° |
| 2026-05-07 17:05 | 14.07294 | -87.29888 | 5160 ft | 143 kts | 124° |
| 2026-05-07 17:05 | 14.06748 | -87.29037 | 4826 ft | 142 kts | 121° |
| 2026-05-07 17:05 | 14.06184 | -87.28191 | 4488 ft | 144 kts | 123° |
| 2026-05-07 17:06 | 14.05624 | -87.27357 | 4340 ft | 138 kts | 120° |
| 2026-05-07 17:06 | 14.05088 | -87.26539 | 4181 ft | 138 kts | 118° |
| 2026-05-07 17:06 | 14.04588 | -87.25673 | 4192 ft | 144 kts | 115° |
| 2026-05-07 17:06 | 14.04141 | -87.24751 | 4125 ft | 140 kts | 112° |
| 2026-05-07 17:07 | 14.03912 | -87.23810 | 3984 ft | 136 kts | 85° |
| 2026-05-07 17:07 | 14.04192 | -87.22851 | 3764 ft | 143 kts | 56° |
| 2026-05-07 17:07 | 14.04921 | -87.22169 | 3480 ft | 145 kts | 27° |
| 2026-05-07 17:07 | 14.05859 | -87.21807 | 3288 ft | 139 kts | 21° |
| 2026-05-07 17:08 | 14.06500 | -87.21574 | 3263 ft | 54 kts | 19° |
| 2026-05-07 17:08 | 14.06745 | -87.21488 | 3257 ft | 33 kts | 19° |
| 2026-05-07 17:08 | 14.06876 | -87.21476 | 3254 ft | 12 kts | 293° |
| 2026-05-07 17:08 | 14.06845 | -87.21543 | 3254 ft | 12 kts | 198° |
| 2026-05-07 17:09 | 14.06762 | -87.21570 | 3256 ft | 12 kts | 198° |
| 2026-05-07 17:09 | 14.06682 | -87.21597 | 3260 ft | 12 kts | 199° |
| 2026-05-07 17:09 | 14.06607 | -87.21624 | 3262 ft | 12 kts | 199° |
| 2026-05-07 17:09 | 14.06527 | -87.21653 | 3263 ft | 13 kts | 199° |
| 2026-05-07 17:10 | 14.06438 | -87.21685 | 3263 ft | 14 kts | 199° |
| 2026-05-07 17:10 | 14.06347 | -87.21716 | 3268 ft | 13 kts | 198° |
| 2026-05-07 17:10 | 14.06265 | -87.21744 | 3263 ft | 12 kts | 198° |
| 2026-05-07 17:10 | 14.06192 | -87.21770 | 3265 ft | 11 kts | 200° |
| 2026-05-07 17:11 | 14.06125 | -87.21794 | 3267 ft | 10 kts | 199° |
| 2026-05-07 17:11 | 14.06088 | -87.21828 | 3267 ft | 5 kts | 290° |
| 2026-05-07 17:11 | 14.06101 | -87.21865 | 3267 ft | 0 kts | 288° |